Time;durP1;ratioP1;P1;durP2;ratioP2;P2;SDS_P1;SDS_P2;PMS_P1;PMS_P2;Temp;Humidity;BMP_temperature;BMP_pressure;BME280_temperature;BME280_humidity;BME280_pressure;Samples;Min_cycle;Max_cycle;Signal;HPM_P1;HPM_P2
2021/12/21 00:02:04;;;;;;;13.07;5.07;;;;;;;1.95;61.48;97473.56;4905169;29;20044;-85
2021/12/21 00:04:33;;;;;;;10.63;4.93;;;;;;;2.01;60.63;97487.44;4897824;29;20044;-86
2021/12/21 00:07:05;;;;;;;12.32;5.55;;;;;;;2.56;61.10;97588.72;4889473;29;20027;-87
2021/12/21 00:09:32;;;;;;;11.48;4.90;;;;;;;2.16;61.15;97542.38;4904776;29;20123;-86
2021/12/21 00:12:01;;;;;;;13.32;5.22;;;;;;;2.34;60.97;97561.25;4905092;29;20039;-86
2021/12/21 00:14:44;;;;;;;10.48;4.65;;;;;;;2.31;60.80;97554.25;4888745;29;20039;-86
2021/12/21 00:54:24;;;;;;;20.77;7.82;;;;;;;2.46;60.75;97608.41;4859693;29;20037;-87
2021/12/21 00:56:49;;;;;;;17.58;7.05;;;;;;;2.37;59.80;97600.75;4891782;29;20039;-87
2021/12/21 00:59:15;;;;;;;14.57;7.07;;;;;;;2.34;60.65;97599.03;4903867;29;20110;-88
2021/12/21 01:01:42;;;;;;;11.02;4.80;;;;;;;2.35;60.22;97599.91;4904116;29;20074;-87
2021/12/21 01:04:14;;;;;;;8.43;4.35;;;;;;;2.26;60.20;97587.84;4903878;29;20129;-86
2021/12/21 01:06:44;;;;;;;9.73;4.93;;;;;;;2.41;61.21;97621.72;4896335;29;20507;-87
2021/12/21 01:09:23;;;;;;;9.68;4.65;;;;;;;2.31;60.37;97603.56;4886459;29;20040;-86
2021/12/21 01:11:56;;;;;;;9.30;4.20;;;;;;;2.18;60.00;97584.56;4893612;29;20044;-87
2021/12/21 01:17:19;;;;;;;8.18;4.22;;;;;;;2.24;60.25;97602.88;4918587;29;20047;-87
2021/12/21 01:19:56;;;;;;;9.50;4.60;;;;;;;2.29;61.40;97618.53;4887599;29;20122;-87
2021/12/21 01:22:51;;;;;;;9.15;4.10;;;;;;;2.17;60.71;97590.75;4886959;29;20043;-86
2021/12/21 01:30:43;;;;;;;8.35;4.68;;;;;;;2.19;61.91;97615.31;4907797;29;20099;-87
2021/12/21 01:35:40;;;;;;;18.52;7.10;;;;;;;2.28;62.13;97622.13;4912054;29;20040;-86
2021/12/21 01:38:25;;;;;;;11.90;5.03;;;;;;;2.35;62.51;97636.84;4889049;29;20411;-87
2021/12/21 01:40:59;;;;;;;10.10;5.03;;;;;;;2.44;62.48;97647.16;4903526;29;20503;-86
2021/12/21 01:43:40;;;;;;;19.83;7.22;;;;;;;2.21;63.93;97617.91;4886160;29;20511;-86
2021/12/21 01:51:36;;;;;;;17.83;8.27;;;;;;;2.20;64.56;97627.59;4903504;29;20066;-86
2021/12/21 01:54:02;;;;;;;15.98;6.88;;;;;;;2.26;63.93;97645.91;4900473;29;20040;-86
2021/12/21 01:56:27;;;;;;;7.15;4.38;;;;;;;2.12;63.35;97617.25;4897963;29;20500;-87
2021/12/21 01:58:53;;;;;;;11.95;6.22;;;;;;;2.08;63.94;97627.94;4885549;29;20063;-86
2021/12/21 02:01:21;;;;;;;13.40;5.38;;;;;;;2.22;64.03;97657.44;4886005;29;20071;-86
2021/12/21 02:03:50;;;;;;;16.77;6.18;;;;;;;2.07;64.62;97652.56;4919213;29;20043;-86
2021/12/21 02:06:26;;;;;;;25.05;9.25;;;;;;;2.10;64.72;97647.22;4896011;29;20040;-87
2021/12/21 02:08:53;;;;;;;20.08;7.97;;;;;;;2.13;65.02;97644.50;4896456;29;20135;-87
2021/12/21 02:11:20;;;;;;;29.13;10.65;;;;;;;2.07;65.53;97648.16;4897648;29;20104;-86
2021/12/21 02:13:48;;;;;;;28.70;10.93;;;;;;;2.15;65.64;97661.16;4896336;29;20135;-87
2021/12/21 02:16:21;;;;;;;14.43;7.43;;;;;;;2.18;65.63;97655.81;4889136;29;20478;-87
2021/12/21 02:21:34;;;;;;;12.45;6.20;;;;;;;2.21;65.59;97666.28;4904334;29;20211;-87
2021/12/21 02:24:05;;;;;;;8.75;5.00;;;;;;;2.09;66.07;97648.13;4890292;29;20040;-86
2021/12/21 02:29:43;;;;;;;13.07;5.93;;;;;;;2.07;66.62;97653.44;4903765;29;20036;-86
2021/12/21 02:31:48;;;;;;;12.77;6.18;;;;;;;2.00;67.11;97651.03;4909673;29;20035;-86
2021/12/21 02:34:15;;;;;;;11.88;5.75;;;;;;;2.14;67.90;97668.19;4902194;29;20509;-86
2021/12/21 02:36:42;;;;;;;10.55;5.80;;;;;;;2.02;68.74;97659.75;4918127;29;20191;-86
2021/12/21 02:39:08;;;;;;;9.40;5.60;;;;;;;1.94;67.74;97645.91;4906852;29;20057;-86
2021/12/21 02:41:34;;;;;;;9.38;5.15;;;;;;;1.89;67.06;97630.19;4906835;29;20111;-87
2021/12/21 02:44:00;;;;;;;11.85;6.72;;;;;;;1.94;68.10;97645.91;4914256;29;20090;-88
2021/12/21 02:46:26;;;;;;;9.60;5.13;;;;;;;1.97;66.31;97630.00;4894375;29;20035;-87
2021/12/21 02:48:52;;;;;;;14.65;6.50;;;;;;;1.89;66.73;97627.56;4896462;29;20057;-86
2021/12/21 02:51:18;;;;;;;8.52;5.00;;;;;;;2.15;63.86;97642.69;4902543;29;20043;-87
2021/12/21 02:53:44;;;;;;;12.02;5.60;;;;;;;2.21;64.26;97654.84;4889045;29;20040;-88
2021/12/21 02:56:11;;;;;;;10.55;5.90;;;;;;;2.02;64.47;97617.53;4906666;29;20516;-87
2021/12/21 02:58:37;;;;;;;9.63;5.32;;;;;;;2.07;64.27;97634.09;4909025;29;20500;-88
2021/12/21 03:01:05;;;;;;;14.63;5.65;;;;;;;2.24;63.82;97655.63;4912415;29;20035;-88
2021/12/21 03:03:30;;;;;;;9.88;5.38;;;;;;;2.19;63.39;97641.69;4903573;29;20035;-87
2021/12/21 03:05:57;;;;;;;11.73;5.63;;;;;;;2.11;64.35;97622.56;4895028;29;20038;-87
2021/12/21 03:08:34;;;;;;;8.48;4.60;;;;;;;2.10;63.21;97618.19;4894709;29;20136;-87
2021/12/21 03:11:14;;;;;;;9.50;5.47;;;;;;;2.09;62.50;97619.97;4903583;29;20108;-87
2021/12/21 03:16:24;;;;;;;11.55;5.43;;;;;;;2.12;61.52;97625.16;4914148;29;20095;-87
2021/12/21 03:18:52;;;;;;;7.95;4.63;;;;;;;2.03;62.07;97624.56;4887900;29;20043;-86
2021/12/21 03:21:17;;;;;;;9.45;5.05;;;;;;;2.19;61.69;97637.28;4888252;29;20056;-87
2021/12/21 03:23:43;;;;;;;13.13;5.97;;;;;;;1.99;62.26;97615.00;4893355;29;20036;-87
2021/12/21 03:26:09;;;;;;;20.45;8.43;;;;;;;2.08;61.49;97620.03;4899408;29;20036;-86
2021/12/21 03:28:34;;;;;;;14.25;5.80;;;;;;;2.15;60.32;97616.31;4901821;29;20563;-86
2021/12/21 03:31:00;;;;;;;12.88;5.32;;;;;;;2.36;60.41;97655.28;4903611;29;20050;-86
2021/12/21 03:33:26;;;;;;;13.15;6.38;;;;;;;2.13;60.44;97624.25;4906183;29;20039;-86
2021/12/21 03:35:51;;;;;;;13.98;6.18;;;;;;;2.17;59.40;97617.13;4906759;29;20036;-88
2021/12/21 03:38:17;;;;;;;12.23;6.40;;;;;;;2.21;60.30;97628.47;4904892;29;20035;-86
2021/12/21 03:40:44;;;;;;;11.30;5.55;;;;;;;2.26;61.26;97651.16;4899993;29;20051;-86
2021/12/21 03:43:10;;;;;;;9.52;4.43;;;;;;;2.08;59.84;97634.06;4888319;29;20036;-86
2021/12/21 03:45:42;;;;;;;10.13;4.68;;;;;;;2.10;59.52;97631.38;4887001;29;20151;-86
2021/12/21 03:48:12;;;;;;;10.38;4.47;;;;;;;2.06;59.36;97629.75;4902997;29;20207;-87
2021/12/21 03:50:38;;;;;;;12.20;4.95;;;;;;;2.14;58.49;97626.00;4919185;29;20075;-86
2021/12/21 03:53:10;;;;;;;6.68;3.60;;;;;;;2.13;58.35;97628.66;4903691;29;20534;-86
2021/12/21 03:55:35;;;;;;;6.25;3.78;;;;;;;2.16;58.43;97642.63;4904225;29;20393;-87
2021/12/21 03:58:01;;;;;;;6.45;3.75;;;;;;;2.06;57.94;97632.41;4903602;29;20047;-88
2021/12/21 04:00:28;;;;;;;7.82;4.72;;;;;;;2.15;58.16;97647.97;4892796;29;20043;-86
2021/12/21 04:02:54;;;;;;;8.25;4.18;;;;;;;2.02;57.38;97636.00;4921488;29;20047;-87
2021/12/21 04:05:20;;;;;;;8.98;3.67;;;;;;;1.92;57.22;97618.69;4905443;29;20046;-88
2021/12/21 04:07:45;;;;;;;8.93;4.63;;;;;;;1.89;58.58;97631.97;4905218;29;20044;-87
2021/12/21 04:10:11;;;;;;;8.43;3.90;;;;;;;1.81;57.61;97628.66;4895948;29;20118;-87
2021/12/21 04:12:36;;;;;;;7.03;3.78;;;;;;;1.91;58.04;97664.41;4886483;29;20043;-87
2021/12/21 04:15:03;;;;;;;5.68;3.70;;;;;;;1.66;57.34;97631.72;4899814;29;20043;-88
2021/12/21 04:17:31;;;;;;;14.48;8.77;;;;;;;1.68;58.31;97648.34;4896064;29;20040;-85
2021/12/21 04:19:57;;;;;;;12.55;3.78;;;;;;;1.58;57.79;97634.53;4898263;29;20436;-87
2021/12/21 04:22:22;;;;;;;5.95;3.22;;;;;;;1.64;57.67;97640.50;4905958;29;20039;-86
2021/12/21 04:24:48;;;;;;;13.77;4.00;;;;;;;1.64;58.56;97656.31;4902849;29;20054;-86
2021/12/21 04:27:17;;;;;;;9.13;5.03;;;;;;;1.53;59.05;97657.50;4901435;29;20477;-87
2021/12/21 04:29:43;;;;;;;10.40;4.15;;;;;;;1.59;58.80;97665.25;4893867;29;20130;-87
2021/12/21 04:32:09;;;;;;;9.48;4.65;;;;;;;1.39;58.43;97626.22;4886583;29;20083;-88
2021/12/21 04:34:35;;;;;;;8.73;4.72;;;;;;;1.49;58.97;97653.19;4902200;29;20095;-86
2021/12/21 04:37:01;;;;;;;9.32;4.78;;;;;;;1.64;58.46;97673.91;4903785;29;20044;-87
2021/12/21 04:39:42;;;;;;;6.60;3.63;;;;;;;1.63;58.53;97662.50;4902426;29;20123;-79
2021/12/21 04:42:08;;;;;;;15.23;6.10;;;;;;;1.59;58.59;97676.66;4898156;29;20062;-86
2021/12/21 04:44:34;;;;;;;14.98;6.50;;;;;;;1.62;59.22;97683.63;4890544;29;20276;-86
2021/12/21 04:47:00;;;;;;;11.50;5.35;;;;;;;1.60;59.16;97678.38;4893833;29;20050;-86
2021/12/21 04:49:26;;;;;;;13.40;6.60;;;;;;;1.50;59.10;97679.53;4890115;29;20099;-85
2021/12/21 04:51:52;;;;;;;12.27;6.25;;;;;;;1.55;60.36;97708.41;4895640;29;20043;-87
2021/12/21 04:54:17;;;;;;;9.05;5.38;;;;;;;1.31;59.96;97667.69;4900929;29;20044;-84
2021/12/21 04:56:43;;;;;;;6.82;3.95;;;;;;;1.16;60.02;97656.66;4915286;29;20514;-87
2021/12/21 04:59:28;;;;;;;7.70;4.90;;;;;;;1.28;60.26;97695.88;4903533;29;20094;-86
2021/12/21 05:01:54;;;;;;;8.65;4.68;;;;;;;1.04;60.37;97655.16;4919622;29;20056;-85
2021/12/21 05:04:20;;;;;;;6.47;3.83;;;;;;;1.12;59.80;97676.91;4920380;29;20059;-87
2021/12/21 05:06:46;;;;;;;6.78;3.53;;;;;;;0.95;60.24;97645.69;4904701;29;20416;-87
2021/12/21 05:09:21;;;;;;;8.80;4.63;;;;;;;1.23;59.98;97695.97;4886261;29;20036;-86
2021/12/21 05:11:47;;;;;;;7.40;4.22;;;;;;;1.06;60.45;97690.22;4886954;29;20036;-86
2021/12/21 05:14:13;;;;;;;12.23;5.72;;;;;;;1.00;60.95;97696.50;4885760;29;20059;-87
2021/12/21 05:16:38;;;;;;;6.22;2.90;;;;;;;0.91;61.07;97686.16;4885478;29;20131;-85
2021/12/21 05:19:05;;;;;;;7.53;3.90;;;;;;;0.91;61.61;97698.47;4894005;29;20073;-86
2021/12/21 05:21:30;;;;;;;10.38;5.55;;;;;;;0.82;61.60;97691.63;4900284;29;20047;-87
2021/12/21 05:23:58;;;;;;;13.93;6.65;;;;;;;0.97;61.94;97716.75;4901361;29;20497;-87
2021/12/21 05:26:23;;;;;;;8.07;4.63;;;;;;;1.00;62.27;97721.97;4889467;29;20035;-86
2021/12/21 05:28:50;;;;;;;14.40;6.20;;;;;;;0.82;61.83;97696.91;4890115;29;20063;-87
2021/12/21 05:31:16;;;;;;;14.82;5.78;;;;;;;0.86;62.14;97703.81;4894448;29;20032;-79
2021/12/21 05:33:42;;;;;;;26.25;10.80;;;;;;;0.93;62.80;97737.00;4898906;29;20044;-81
2021/12/21 05:36:08;;;;;;;9.18;4.75;;;;;;;0.87;61.98;97723.97;4893022;29;20043;-81
2021/12/21 05:38:35;;;;;;;4.40;3.15;;;;;;;1.01;60.99;97729.84;4888594;29;20039;-80
2021/12/21 05:41:04;;;;;;;7.35;4.25;;;;;;;1.04;61.51;97735.03;4905958;29;20044;-79
2021/12/21 05:43:29;;;;;;;10.20;3.22;;;;;;;1.11;60.83;97741.00;4898535;29;20047;-81
2021/12/21 05:45:55;;;;;;;12.82;4.70;;;;;;;1.06;61.12;97735.00;4904592;29;20527;-79
2021/12/21 05:48:21;;;;;;;13.52;5.28;;;;;;;1.05;61.32;97746.41;4887186;29;20036;-80
2021/12/21 05:50:47;;;;;;;6.88;3.65;;;;;;;1.06;60.60;97748.16;4882821;29;20055;-82
2021/12/21 05:53:12;;;;;;;10.40;5.20;;;;;;;1.14;60.70;97758.53;4905647;29;20048;-80
2021/12/21 05:55:39;;;;;;;9.65;4.15;;;;;;;1.02;60.49;97749.13;4887938;29;20514;-81
2021/12/21 05:58:05;;;;;;;9.65;3.90;;;;;;;1.08;61.15;97762.16;4893014;29;20550;-81
2021/12/21 06:00:33;;;;;;;15.73;7.85;;;;;;;1.05;61.77;97762.22;4898794;29;20032;-80
2021/12/21 06:02:59;;;;;;;9.68;4.57;;;;;;;1.06;61.54;97774.50;4890196;29;20579;-80
2021/12/21 06:05:48;;;;;;;14.63;5.45;;;;;;;0.86;62.27;97745.94;4898757;29;20134;-81
2021/12/21 06:08:14;;;;;;;11.25;6.10;;;;;;;1.01;61.18;97765.84;4903883;29;20517;-81
2021/12/21 06:10:43;;;;;;;10.98;6.75;;;;;;;0.87;61.12;97741.53;4904766;29;20032;-79
2021/12/21 06:14:22;;;;;;;9.80;5.32;;;;;;;1.05;61.53;97778.88;4892519;29;20059;-79
2021/12/21 06:26:42;;;;;;;16.63;7.47;;;;;;;1.06;61.08;97790.28;4913075;29;20335;-80
2021/12/21 06:29:19;;;;;;;13.60;6.75;;;;;;;0.99;60.24;97780.78;4879733;29;20048;-80
2021/12/21 06:31:45;;;;;;;8.20;4.22;;;;;;;1.13;59.99;97793.69;4896044;29;20039;-80
2021/12/21 06:34:19;;;;;;;18.45;7.95;;;;;;;1.07;60.62;97792.03;4879686;29;20052;-80
2021/12/21 06:36:45;;;;;;;12.10;6.63;;;;;;;1.11;60.03;97793.69;4901620;29;20040;-79
2021/12/21 06:39:10;;;;;;;9.18;5.28;;;;;;;1.25;58.44;97807.47;4886656;29;20047;-81
2021/12/21 06:41:37;;;;;;;11.77;5.97;;;;;;;1.19;58.50;97786.50;4879289;29;20044;-80
2021/12/21 06:44:08;;;;;;;27.98;13.77;;;;;;;1.20;58.64;97790.84;4890356;29;20055;-80
2021/12/21 06:47:03;;;;;;;13.90;6.77;;;;;;;1.27;58.16;97808.28;4883933;29;20528;-80
2021/12/21 06:52:16;;;;;;;22.27;9.52;;;;;;;2.86;54.23;97799.09;4905031;29;20135;-80
2021/12/21 06:54:41;;;;;;;25.05;11.77;;;;;;;4.67;50.45;97776.63;4900630;29;20047;-80
2021/12/21 06:57:07;;;;;;;31.88;14.68;;;;;;;6.36;46.02;97761.25;4890881;29;20531;-79
2021/12/21 06:59:33;;;;;;;21.63;10.70;;;;;;;7.51;43.00;97753.44;4898983;29;20126;-80
2021/12/21 07:01:59;;;;;;;12.85;4.88;;;;;;;7.36;42.45;97766.59;4904583;29;20511;-80
2021/12/21 07:04:24;;;;;;;12.88;6.32;;;;;;;8.13;41.31;97755.78;4898046;29;20512;-80
2021/12/21 07:06:52;;;;;;;12.30;6.25;;;;;;;8.95;39.12;97753.44;4885103;29;20044;-80
2021/12/21 07:12:24;;;;;;;12.75;7.40;;;;;;;10.60;36.26;97747.72;4908603;29;20038;-80
2021/12/21 07:20:18;;;;;;;10.98;5.40;;;;;;;11.38;34.02;97742.03;4902015;29;20055;-80
2021/12/21 07:22:44;;;;;;;17.83;8.75;;;;;;;11.66;33.41;97745.69;4896350;29;20047;-80
2021/12/21 07:25:09;;;;;;;13.00;6.00;;;;;;;11.75;33.01;97740.63;4891325;29;20408;-81
2021/12/21 07:27:35;;;;;;;13.90;4.53;;;;;;;11.88;32.37;97743.38;4896481;29;20043;-80
2021/12/21 07:30:01;;;;;;;9.13;5.53;;;;;;;11.91;32.40;97743.19;4891381;29;20046;-81
2021/12/21 07:32:26;;;;;;;9.85;4.63;;;;;;;12.36;32.08;97756.31;4891031;29;20050;-82
2021/12/21 07:34:52;;;;;;;11.77;6.95;;;;;;;12.79;31.33;97748.06;4899347;29;20514;-80
2021/12/21 07:37:18;;;;;;;20.83;10.18;;;;;;;13.12;30.56;97756.53;4896555;29;20044;-80
2021/12/21 07:39:44;;;;;;;14.55;5.32;;;;;;;13.24;29.84;97744.94;4895644;29;20039;-80
2021/12/21 07:42:09;;;;;;;14.50;8.48;;;;;;;13.33;29.95;97751.50;4891156;29;20095;-81
2021/12/21 07:44:35;;;;;;;8.40;5.35;;;;;;;13.23;29.23;97745.91;4886723;29;20048;-82
2021/12/21 07:47:01;;;;;;;11.63;5.95;;;;;;;13.21;29.91;97755.91;4881830;29;20051;-82
2021/12/21 07:49:26;;;;;;;23.15;12.20;;;;;;;12.42;30.74;97741.63;4883666;29;20428;-81
2021/12/21 07:51:52;;;;;;;57.80;21.00;;;;;;;12.73;31.04;97752.03;4888509;29;20043;-81
2021/12/21 07:54:18;;;;;;;19.38;8.75;;;;;;;12.91;30.37;97760.66;4890446;29;20079;-82
2021/12/21 07:56:44;;;;;;;21.00;10.57;;;;;;;12.80;30.35;97757.81;4899975;29;20035;-82
2021/12/21 07:59:11;;;;;;;24.95;12.27;;;;;;;12.23;31.32;97763.44;4881107;29;20508;-81
2021/12/21 08:01:37;;;;;;;28.38;9.85;;;;;;;12.08;31.31;97753.69;4891852;29;20047;-81
2021/12/21 08:04:03;;;;;;;15.18;7.90;;;;;;;11.11;32.21;97773.19;4900161;29;20051;-80
2021/12/21 08:06:32;;;;;;;19.58;9.57;;;;;;;9.88;34.20;97784.81;4899982;29;20058;-81
2021/12/21 08:08:58;;;;;;;16.90;7.90;;;;;;;9.74;35.34;97798.09;4898505;29;20039;-81
2021/12/21 08:14:03;;;;;;;21.92;8.88;;;;;;;12.44;30.73;97766.53;4902441;29;20054;-82
2021/12/21 08:16:28;;;;;;;18.50;5.47;;;;;;;13.29;28.46;97766.97;4880965;29;20036;-82
2021/12/21 08:18:54;;;;;;;7.90;4.28;;;;;;;12.71;28.63;97763.81;4882575;29;20055;-80
2021/12/21 08:21:24;;;;;;;4.30;2.78;;;;;;;12.93;27.37;97753.34;4892678;29;20111;-81
2021/12/21 08:23:49;;;;;;;7.18;4.10;;;;;;;11.78;29.18;97758.34;4892382;29;20040;-81
2021/12/21 08:26:15;;;;;;;6.88;4.10;;;;;;;10.29;30.88;97770.03;4915194;29;20435;-81
2021/12/21 08:28:41;;;;;;;7.07;3.95;;;;;;;8.70;33.50;97785.84;4893198;29;20059;-80
2021/12/21 08:31:16;;;;;;;5.93;3.67;;;;;;;10.01;32.83;97785.88;4889837;29;20042;-81
2021/12/21 08:33:42;;;;;;;5.15;3.60;;;;;;;11.70;30.61;97780.25;4916148;29;20723;-81
2021/12/21 08:36:10;;;;;;;7.22;4.53;;;;;;;12.61;29.72;97778.84;4897225;29;20492;-81
2021/12/21 08:38:38;;;;;;;4.07;2.80;;;;;;;13.48;27.86;97780.84;4912626;29;20058;-83
2021/12/21 08:41:04;;;;;;;10.48;5.90;;;;;;;14.55;26.04;97758.72;4887230;29;20492;-83
2021/12/21 08:43:32;;;;;;;10.25;5.72;;;;;;;14.23;26.65;97756.66;4895413;29;20051;-82
2021/12/21 08:45:58;;;;;;;10.00;5.40;;;;;;;13.94;27.48;97769.53;4903221;29;20044;-83
2021/12/21 08:48:25;;;;;;;5.90;4.05;;;;;;;13.96;28.25;97786.44;4888217;29;20098;-83
2021/12/21 08:50:54;;;;;;;8.00;4.25;;;;;;;13.47;28.68;97792.56;4888641;29;20036;-83
2021/12/21 08:53:20;;;;;;;11.93;5.03;;;;;;;12.12;30.20;97794.59;4899297;29;20048;-81
2021/12/21 08:55:46;;;;;;;7.82;4.07;;;;;;;10.74;31.28;97797.72;4895855;29;20062;-81
2021/12/21 08:58:12;;;;;;;7.70;4.53;;;;;;;10.43;32.26;97797.81;4909825;29;20043;-81
2021/12/21 09:00:38;;;;;;;6.95;3.03;;;;;;;9.34;34.06;97807.38;4899188;29;20061;-81
2021/12/21 09:03:05;;;;;;;18.77;9.93;;;;;;;8.54;35.67;97812.41;4883446;29;20131;-81
2021/12/21 09:05:31;;;;;;;10.23;5.15;;;;;;;7.82;37.60;97823.88;4881782;29;20467;-80
2021/12/21 09:07:58;;;;;;;13.75;4.43;;;;;;;7.23;37.89;97842.59;4883531;29;20095;-81
2021/12/21 09:10:24;;;;;;;12.65;5.90;;;;;;;6.71;39.02;97838.59;4896629;29;20036;-80
2021/12/21 09:12:51;;;;;;;6.40;4.15;;;;;;;6.33;39.88;97850.81;4891590;29;20044;-80
2021/12/21 09:15:18;;;;;;;11.23;5.95;;;;;;;6.21;40.17;97857.50;4899053;29;20086;-80
2021/12/21 09:17:44;;;;;;;11.10;6.07;;;;;;;6.32;39.38;97841.13;4888938;29;20532;-81
2021/12/21 09:20:13;;;;;;;12.70;6.30;;;;;;;6.24;39.77;97835.25;4891739;29;20490;-80
2021/12/21 09:22:39;;;;;;;14.63;4.30;;;;;;;6.15;38.54;97848.91;4882219;29;20524;-80
2021/12/21 09:25:05;;;;;;;5.20;3.78;;;;;;;5.86;37.08;97834.97;4889461;29;20032;-80
2021/12/21 09:27:31;;;;;;;5.95;3.03;;;;;;;5.99;37.10;97835.38;4884331;29;20036;-81
2021/12/21 09:29:57;;;;;;;6.63;3.83;;;;;;;5.76;37.54;97841.53;4884107;29;20039;-80
2021/12/21 09:32:22;;;;;;;8.82;4.40;;;;;;;5.83;37.00;97821.78;4888416;29;20067;-81
2021/12/21 09:34:48;;;;;;;14.73;5.20;;;;;;;5.52;36.44;97818.56;4892047;29;20039;-80
2021/12/21 09:37:17;;;;;;;10.25;5.10;;;;;;;5.37;36.75;97824.44;4884160;29;20051;-79
2021/12/21 09:39:44;;;;;;;15.55;6.40;;;;;;;5.45;37.16;97819.72;4886168;29;20064;-80
2021/12/21 09:42:13;;;;;;;14.23;4.55;;;;;;;5.42;36.86;97828.66;4896397;29;20044;-79
2021/12/21 09:44:39;;;;;;;9.35;4.93;;;;;;;5.39;37.15;97825.25;4886090;29;20335;-80
2021/12/21 09:47:06;;;;;;;13.48;5.20;;;;;;;5.54;37.33;97835.28;4888725;29;20044;-80
2021/12/21 09:49:32;;;;;;;5.38;3.58;;;;;;;5.50;38.25;97817.78;4893591;29;20044;-80
2021/12/21 09:51:57;;;;;;;8.07;5.05;;;;;;;5.65;39.38;97833.13;4903254;29;20107;-80
2021/12/21 09:54:25;;;;;;;8.85;4.25;;;;;;;5.63;38.48;97842.06;4886218;29;20107;-80
2021/12/21 09:56:50;;;;;;;7.60;4.40;;;;;;;5.31;38.80;97837.94;4890708;29;20043;-79
2021/12/21 09:59:16;;;;;;;9.80;4.53;;;;;;;5.24;39.00;97841.72;4901012;29;20039;-81
2021/12/21 10:01:42;;;;;;;10.25;5.55;;;;;;;5.14;41.91;97866.81;4901055;29;20103;-80
2021/12/21 10:04:07;;;;;;;7.78;4.28;;;;;;;5.01;42.40;97850.50;4900831;29;20063;-80
2021/12/21 10:06:47;;;;;;;11.18;5.00;;;;;;;5.21;42.76;97865.69;4901064;29;20046;-79
2021/12/21 10:09:13;;;;;;;18.08;6.22;;;;;;;5.20;38.69;97850.72;4908668;29;20048;-80
2021/12/21 10:11:48;;;;;;;12.68;5.57;;;;;;;5.54;36.48;97848.56;4898199;29;20031;-79
2021/12/21 10:14:15;;;;;;;11.98;3.83;;;;;;;5.94;35.40;97838.19;4893485;29;20047;-79
2021/12/21 10:16:42;;;;;;;7.53;3.83;;;;;;;6.76;33.91;97826.88;4893130;29;20032;-79
2021/12/21 10:19:08;;;;;;;8.45;4.38;;;;;;;7.30;33.03;97823.59;4892726;29;20425;-79
2021/12/21 10:21:44;;;;;;;18.25;5.32;;;;;;;8.05;32.38;97821.88;4904752;29;20091;-81
2021/12/21 10:24:09;;;;;;;10.10;3.80;;;;;;;7.70;32.05;97811.13;4900935;29;20401;-79
2021/12/21 10:26:35;;;;;;;10.30;3.50;;;;;;;8.81;31.75;97807.47;4900759;29;20042;-80
2021/12/21 10:29:05;;;;;;;11.45;3.60;;;;;;;10.40;29.21;97795.31;4900656;29;20504;-80
2021/12/21 10:31:36;;;;;;;12.80;5.78;;;;;;;11.44;28.22;97784.50;4891718;29;20038;-81
2021/12/21 10:34:11;;;;;;;11.43;5.60;;;;;;;13.07;26.63;97783.66;4885772;29;20496;-81
2021/12/21 10:36:41;;;;;;;9.75;3.65;;;;;;;14.31;25.47;97779.34;4891543;29;20035;-81
2021/12/21 10:39:07;;;;;;;9.38;5.20;;;;;;;13.35;24.72;97768.41;4896416;29;20040;-81
2021/12/21 10:41:39;;;;;;;9.85;5.63;;;;;;;11.65;26.82;97776.13;4892582;29;20048;-81
2021/12/21 10:44:05;;;;;;;8.93;2.95;;;;;;;10.81;28.44;97777.69;4888833;29;20044;-82
2021/12/21 10:46:34;;;;;;;9.35;3.70;;;;;;;9.37;30.05;97787.66;4913172;29;20039;-80
2021/12/21 10:49:07;;;;;;;8.85;4.95;;;;;;;8.07;31.90;97790.69;4909490;29;20495;-80
2021/12/21 10:51:32;;;;;;;13.32;5.75;;;;;;;7.02;34.38;97807.13;4896171;29;20036;-80
2021/12/21 10:53:58;;;;;;;10.60;5.25;;;;;;;7.06;35.23;97814.91;4895971;29;20040;-80
2021/12/21 10:56:24;;;;;;;4.70;3.42;;;;;;;7.25;34.67;97819.41;4889006;29;20039;-79
2021/12/21 10:58:49;;;;;;;8.35;3.80;;;;;;;8.27;32.91;97811.06;4903324;29;20036;-79
2021/12/21 11:01:25;;;;;;;17.45;5.30;;;;;;;7.81;32.70;97815.06;4896420;29;20044;-79
2021/12/21 11:03:53;;;;;;;17.38;7.43;;;;;;;7.33;34.19;97822.59;4901345;29;20114;-79
2021/12/21 11:06:27;;;;;;;14.68;5.05;;;;;;;6.77;33.47;97830.38;4917337;29;20468;-79
2021/12/21 11:08:54;;;;;;;13.77;6.80;;;;;;;6.37;34.54;97817.88;4885708;29;20054;-79
2021/12/21 11:11:43;;;;;;;7.85;4.72;;;;;;;6.00;34.43;97837.94;4896395;29;20040;-79
2021/12/21 11:14:13;;;;;;;6.80;3.85;;;;;;;5.45;34.78;97832.97;4911986;29;20036;-81
2021/12/21 11:16:44;;;;;;;10.57;4.80;;;;;;;5.08;35.22;97827.28;4893708;29;20516;-79
2021/12/21 11:19:11;;;;;;;7.78;4.45;;;;;;;5.91;35.42;97830.34;4911155;29;20472;-79
2021/12/21 11:21:38;;;;;;;16.70;4.85;;;;;;;6.73;33.41;97824.34;4903123;29;20133;-80
2021/12/21 11:24:06;;;;;;;9.70;5.10;;;;;;;6.17;33.14;97813.41;4891680;29;20036;-80
2021/12/21 11:26:33;;;;;;;9.93;4.53;;;;;;;5.65;34.22;97819.84;4899071;29;20126;-79
2021/12/21 11:29:13;;;;;;;9.75;3.45;;;;;;;5.17;34.83;97817.22;4884529;29;20509;-79
2021/12/21 11:31:50;;;;;;;7.25;3.83;;;;;;;4.93;35.58;97823.41;4900124;29;20135;-80
2021/12/21 11:34:20;;;;;;;7.25;4.63;;;;;;;4.98;35.99;97828.53;4891546;29;20051;-80
2021/12/21 11:39:33;;;;;;;5.80;3.30;;;;;;;5.61;34.25;97826.19;4910117;29;20035;-80
2021/12/21 11:42:00;;;;;;;7.45;3.90;;;;;;;5.75;34.02;97812.41;4891400;29;20535;-80
2021/12/21 11:44:32;;;;;;;11.23;5.13;;;;;;;5.81;35.05;97825.44;4884088;29;20044;-80
2021/12/21 11:47:03;;;;;;;21.40;10.20;;;;;;;5.83;35.00;97832.41;4912290;29;20098;-80
2021/12/21 11:49:34;;;;;;;12.65;6.65;;;;;;;5.76;35.36;97820.28;4911163;29;20039;-79
2021/12/21 11:52:18;;;;;;;9.85;4.40;;;;;;;5.68;34.09;97826.81;4897006;29;20096;-81
2021/12/21 11:54:48;;;;;;;12.27;4.70;;;;;;;5.71;33.66;97822.28;4906521;29;20500;-79
2021/12/21 11:57:14;;;;;;;12.98;5.30;;;;;;;5.88;34.26;97819.84;4914437;29;20495;-79
2021/12/21 11:59:39;;;;;;;17.48;7.70;;;;;;;6.17;33.62;97820.50;4893480;29;20475;-81
2021/12/21 12:02:06;;;;;;;14.93;7.30;;;;;;;7.82;32.39;97815.91;4911621;29;20087;-79
2021/12/21 12:04:33;;;;;;;12.55;5.60;;;;;;;9.71;29.48;97801.78;4911480;29;20074;-80
2021/12/21 12:06:59;;;;;;;18.80;5.82;;;;;;;9.61;28.37;97794.34;4900385;29;20035;-81
2021/12/21 12:09:34;;;;;;;13.93;6.35;;;;;;;10.71;27.69;97782.72;4917367;29;20106;-80
2021/12/21 12:12:12;;;;;;;14.73;6.57;;;;;;;13.00;25.55;97797.63;4910041;29;20044;-78
2021/12/21 12:14:39;;;;;;;11.75;5.85;;;;;;;13.36;23.99;97788.91;4895900;29;20575;-80
2021/12/21 12:17:44;;;;;;;20.00;8.48;;;;;;;14.62;24.29;97797.69;4897403;29;20202;-80
2021/12/21 12:20:10;;;;;;;8.70;5.10;;;;;;;13.37;25.65;97788.81;4868304;29;20044;-80
2021/12/21 12:22:42;;;;;;;10.85;4.80;;;;;;;11.97;26.87;97799.09;4897812;29;20040;-80
2021/12/21 12:25:16;;;;;;;11.25;5.30;;;;;;;12.41;26.98;97794.41;4886442;29;20032;-80
2021/12/21 12:27:44;;;;;;;17.58;7.07;;;;;;;10.99;28.24;97805.16;4888709;29;20047;-81
2021/12/21 12:30:13;;;;;;;15.88;7.65;;;;;;;9.73;31.00;97823.94;4895294;29;20039;-81
2021/12/21 12:32:41;;;;;;;13.45;7.47;;;;;;;8.89;32.00;97823.13;4889490;29;20504;-81
2021/12/21 12:35:13;;;;;;;11.93;7.50;;;;;;;8.25;33.65;97849.34;4888978;29;20734;-80
2021/12/21 12:38:02;;;;;;;8.25;4.90;;;;;;;6.81;34.94;97850.59;4899071;29;20036;-80
2021/12/21 12:40:34;;;;;;;12.35;6.55;;;;;;;6.13;35.38;97854.28;4904643;29;20047;-80
2021/12/21 12:43:08;;;;;;;11.20;6.57;;;;;;;5.86;35.11;97864.19;4888389;29;20047;-79
2021/12/21 12:46:03;;;;;;;8.18;4.90;;;;;;;5.64;35.14;97871.19;4896619;29;20178;-81
2021/12/21 12:48:31;;;;;;;9.00;4.78;;;;;;;5.42;35.06;97868.44;4914603;29;20044;-81
2021/12/21 12:50:58;;;;;;;10.63;5.70;;;;;;;5.43;36.47;97870.19;4924706;29;20494;-79
2021/12/21 12:53:37;;;;;;;12.57;4.82;;;;;;;5.05;35.40;97864.50;4907873;29;20068;-80
2021/12/21 12:56:04;;;;;;;9.95;5.25;;;;;;;4.87;36.28;97869.53;4887343;29;20042;-79
2021/12/21 12:58:31;;;;;;;11.40;5.05;;;;;;;5.27;35.81;97865.47;4880921;29;20123;-80
2021/12/21 13:01:06;;;;;;;10.95;6.20;;;;;;;5.44;35.85;97871.06;4896009;29;20031;-79
2021/12/21 13:03:34;;;;;;;9.45;4.50;;;;;;;5.58;34.77;97868.75;4893560;29;20047;-80
2021/12/21 13:06:01;;;;;;;10.15;5.22;;;;;;;5.82;34.91;97867.81;4890182;29;20043;-80
2021/12/21 13:08:27;;;;;;;10.10;4.78;;;;;;;5.23;35.18;97872.66;4885754;29;20067;-80
2021/12/21 13:10:57;;;;;;;13.88;5.80;;;;;;;4.87;36.11;97881.91;4881259;29;20052;-80